Great Neck Estates, New York
Current Conditions -  °F | °C
As of 7:51 PM on Saturday 25 Oct 2014 (Local Time) from KLGA Reporting Station
Broken Clouds Broken Clouds  
Wind Chill: 64°   Ceiling: 25000
Heat Index: 64°   Visibility: 10mi
Dew Point: 43°   Wind: 8mph
Humidity: 46%   Direction: 220°SW
Pressure: 29.64"   Gusts: NA
Location:  40.786°N, 73.7291°W
Report Text: KLGA 252351Z 22007KT 10SM SCT080 BKN250 18/06 A2964 RMK AO2 SLP035 T01780061 10200 20178 56005
Loading
Personal Weather Stations






























Interactive Weather Map
Tropical Storm Tracking
New forecast layout! Learn more

10-Day Weather Forecast

Advertisements
Track Severe Weather on mobile